KSAA

Shively Field Airport

Saratoga, Wyoming, USA
METAR KSAA 261315Z AUTO 13006KT 10SM CLR 12/M01 A3007 RMK AO2
Observed Flight Rules
May-26 @ 13:15 UTC (12 minutes ago) Visual Flight Rules
Wind Visibility Clouds
130° at 6 knots 10 miles
  • Clear skies
Temperatures Readings
Current 12°C / 54°F
Dewpoint -1°C / 30°F
Humidity 41%
Altimeter 30.07" Hg
Pressure 1018 hPa
Elevation 2138
METAR KSAA 261315Z AUTO 13006KT 10SM CLR 12/M01 A3007 RMK AO2
Observed Flight Rules
May-26 @ 13:15 UTC
(12 minutes ago)
VFR
Wind Visibility
130° at 6 knots 10 miles
Clouds
  • Clear skies
Temperature Dewpoint
12°C / 54°F -1°C / 30°F
Humidity Altimeter Pressure
41% 30.07" Hg 1018 hPa